Time;durP1;ratioP1;P1;durP2;ratioP2;P2;SDS_P1;SDS_P2;PMS_P1;PMS_P2;Temp;Humidity;BMP_temperature;BMP_pressure;BME280_temperature;BME280_humidity;BME280_pressure;Samples;Min_cycle;Max_cycle;Signal;HPM_P1;HPM_P2
2022/07/28 00:03:36;;;;;;;2.73;1.37;;;17.20;1.00;;;;;;5135537;27;20205;-85
2022/07/28 00:06:03;;;;;;;2.70;1.50;;;17.30;1.00;;;;;;5137060;28;20166;-84
2022/07/28 00:08:28;;;;;;;3.60;1.50;;;17.30;1.00;;;;;;5136382;28;20174;-84
2022/07/28 00:10:54;;;;;;;5.00;1.90;;;17.30;1.00;;;;;;5116619;28;20193;-84
2022/07/28 00:13:19;;;;;;;5.30;1.73;;;17.20;1.00;;;;;;5135565;28;20577;-85
2022/07/28 00:15:45;;;;;;;3.13;1.70;;;17.20;1.00;;;;;;5136447;28;20534;-81
2022/07/28 00:18:11;;;;;;;3.43;1.80;;;17.20;1.00;;;;;;5137673;28;20633;-83
2022/07/28 00:20:36;;;;;;;5.07;1.60;;;17.20;1.00;;;;;;5135293;28;20613;-81
2022/07/28 00:23:02;;;;;;;4.83;1.70;;;17.20;1.00;;;;;;5134732;28;20529;-80
2022/07/28 00:25:28;;;;;;;4.87;2.10;;;17.20;1.00;;;;;;5117105;28;20178;-82
2022/07/28 00:27:53;;;;;;;4.70;1.63;;;17.20;1.00;;;;;;5135383;28;20174;-81
2022/07/28 00:30:19;;;;;;;4.90;1.77;;;17.10;1.00;;;;;;5134965;28;20687;-79
2022/07/28 00:32:45;;;;;;;3.97;1.80;;;17.10;1.00;;;;;;5135008;28;20174;-82
2022/07/28 00:35:11;;;;;;;5.60;2.30;;;17.10;1.00;;;;;;5133486;28;20213;-83
2022/07/28 00:37:38;;;;;;;5.23;2.07;;;17.10;1.00;;;;;;5116160;28;20247;-82
2022/07/28 00:40:06;;;;;;;5.87;1.90;;;17.00;1.00;;;;;;5116055;28;20170;-82
2022/07/28 00:42:32;;;;;;;4.17;1.90;;;16.90;1.00;;;;;;5134030;28;20173;-81
2022/07/28 00:44:57;;;;;;;3.50;2.00;;;16.90;1.00;;;;;;5134209;28;20241;-82
2022/07/28 00:47:23;;;;;;;2.93;1.60;;;16.80;1.00;;;;;;5133892;28;20630;-82
2022/07/28 00:49:49;;;;;;;4.20;2.13;;;16.80;1.00;;;;;;5116446;28;20566;-82
2022/07/28 00:52:16;;;;;;;5.63;1.90;;;16.80;1.00;;;;;;5115413;28;20162;-81
2022/07/28 00:54:43;;;;;;;5.80;1.90;;;16.80;1.00;;;;;;5115749;28;20275;-86
2022/07/28 00:57:09;;;;;;;5.80;1.90;;;16.70;1.00;;;;;;5117776;28;20170;-82
2022/07/28 00:59:35;;;;;;;4.90;2.00;;;16.70;1.00;;;;;;5134811;28;20177;-84
2022/07/28 01:02:01;;;;;;;2.73;1.70;;;16.70;1.00;;;;;;5115369;27;20537;-82
2022/07/28 01:04:28;;;;;;;3.37;1.73;;;16.70;1.00;;;;;;5137857;27;20166;-82
2022/07/28 01:07:07;;;;;;;5.70;2.00;;;16.60;1.00;;;;;;5121830;27;20262;-83
2022/07/28 01:09:59;;;;;;;4.53;2.17;;;16.60;1.00;;;;;;5141108;27;20170;-81
2022/07/28 01:12:44;;;;;;;5.63;1.83;;;16.60;1.00;;;;;;5121291;27;20169;-83
2022/07/28 01:16:04;;;;;;;5.10;2.07;;;16.50;1.00;;;;;;5145622;27;20178;-83
2022/07/28 01:18:41;;;;;;;3.30;1.90;;;16.50;1.00;;;;;;5037565;28;20204;-85
2022/07/28 01:21:12;;;;;;;4.60;1.80;;;16.60;1.00;;;;;;5119438;27;20172;-82
2022/07/28 01:23:52;;;;;;;4.80;1.83;;;16.60;1.00;;;;;;5137694;27;20166;-85
2022/07/28 01:26:35;;;;;;;4.20;1.63;;;16.50;1.00;;;;;;5123685;27;20213;-82
2022/07/28 01:29:18;;;;;;;4.37;1.83;;;16.50;1.00;;;;;;5155048;27;20178;-84
2022/07/28 01:32:05;;;;;;;4.07;1.83;;;16.60;1.00;;;;;;5121983;27;20174;-82
2022/07/28 01:34:39;;;;;;;6.17;2.10;;;16.50;1.00;;;;;;5119233;27;20202;-84
2022/07/28 01:37:16;;;;;;;3.23;1.60;;;16.50;1.00;;;;;;5153508;27;20170;-82
2022/07/28 01:39:44;;;;;;;4.03;2.27;;;16.60;1.00;;;;;;5162363;27;20142;-84
2022/07/28 01:42:12;;;;;;;4.90;2.10;;;16.60;1.00;;;;;;5161983;27;20174;-84
2022/07/28 01:44:43;;;;;;;6.10;2.47;;;16.50;1.00;;;;;;5162072;27;20190;-81
2022/07/28 01:47:10;;;;;;;4.73;1.73;;;16.50;1.00;;;;;;5139855;27;20162;-82
2022/07/28 01:50:07;;;;;;;4.30;1.93;;;16.60;1.00;;;;;;5134423;27;20166;-84
2022/07/28 01:55:57;;;;;;;4.03;1.77;;;16.50;1.00;;;;;;5138344;27;20225;-85
2022/07/28 01:58:25;;;;;;;4.97;1.77;;;16.50;1.00;;;;;;5138166;27;20191;-80
2022/07/28 02:00:52;;;;;;;6.47;2.23;;;16.50;1.00;;;;;;5118663;27;20178;-81
2022/07/28 02:03:21;;;;;;;4.43;1.77;;;16.50;1.00;;;;;;5136444;27;20166;-83
2022/07/28 02:05:49;;;;;;;7.17;2.10;;;16.50;1.00;;;;;;5143061;27;20162;-81
2022/07/28 02:08:18;;;;;;;7.00;2.10;;;16.30;1.00;;;;;;5139008;27;20196;-82
2022/07/28 02:13:35;;;;;;;5.37;1.97;;;16.30;1.00;;;;;;5095591;27;20217;-83
2022/07/28 02:16:06;;;;;;;3.90;1.70;;;16.30;1.00;;;;;;5137301;27;20245;-81
2022/07/28 02:18:33;;;;;;;3.57;1.60;;;16.30;1.00;;;;;;5120323;27;20544;-82
2022/07/28 02:21:01;;;;;;;3.57;2.13;;;16.20;1.00;;;;;;5147382;27;20162;-83
2022/07/28 02:23:27;;;;;;;5.43;2.13;;;16.10;1.00;;;;;;5143347;27;20174;-81
2022/07/28 02:25:59;;;;;;;3.83;1.80;;;16.10;1.00;;;;;;5132907;27;20181;-84
2022/07/28 02:28:29;;;;;;;3.23;1.80;;;16.00;1.00;;;;;;5126522;27;20645;-84
2022/07/28 02:31:36;;;;;;;4.97;1.60;;;16.00;1.00;;;;;;5136793;27;20153;-81
2022/07/28 02:34:03;;;;;;;4.33;1.90;;;16.00;1.00;;;;;;5117978;27;20270;-85
2022/07/28 02:36:37;;;;;;;6.07;1.97;;;16.00;1.00;;;;;;5120226;27;20194;-83
2022/07/28 02:39:14;;;;;;;4.20;1.77;;;16.00;1.00;;;;;;5119351;27;20166;-85
2022/07/28 02:41:42;;;;;;;2.70;1.90;;;16.00;1.00;;;;;;5153844;27;20206;-84
2022/07/28 02:44:14;;;;;;;3.43;1.93;;;15.90;1.00;;;;;;5139561;27;20189;-81
2022/07/28 02:46:52;;;;;;;6.07;1.80;;;15.90;1.00;;;;;;5148471;27;20162;-82
2022/07/28 02:49:32;;;;;;;5.90;1.70;;;15.90;1.00;;;;;;5141238;27;20179;-83
2022/07/28 02:52:20;;;;;;;5.27;2.03;;;15.90;1.00;;;;;;5118772;27;20170;-82
2022/07/28 02:54:47;;;;;;;7.13;1.97;;;15.90;1.00;;;;;;5137903;27;20197;-80
2022/07/28 02:57:15;;;;;;;4.20;1.80;;;15.90;1.00;;;;;;5119756;27;20188;-81
2022/07/28 02:59:42;;;;;;;4.70;1.80;;;15.90;1.00;;;;;;5140179;27;20188;-80
2022/07/28 03:02:09;;;;;;;4.67;1.97;;;15.90;1.00;;;;;;5125376;27;20294;-81
2022/07/28 03:07:20;;;;;;;4.60;1.90;;;15.80;1.00;;;;;;5150019;27;20177;-81
2022/07/28 03:09:46;;;;;;;5.47;2.00;;;15.80;1.00;;;;;;5131287;27;20174;-85
2022/07/28 03:12:13;;;;;;;5.37;2.33;;;15.80;1.00;;;;;;5154427;27;20169;-84
2022/07/28 03:14:39;;;;;;;5.77;1.90;;;15.90;1.00;;;;;;5150068;27;20197;-83
2022/07/28 03:17:27;;;;;;;3.77;1.70;;;15.90;1.00;;;;;;5120713;27;20166;-84
2022/07/28 03:19:53;;;;;;;6.57;1.63;;;15.90;1.00;;;;;;5137164;27;20194;-81
2022/07/28 03:22:18;;;;;;;5.83;1.93;;;15.90;1.00;;;;;;5121116;27;20166;-81
2022/07/28 03:24:56;;;;;;;6.03;2.07;;;15.90;1.00;;;;;;5126102;27;20166;-81
2022/07/28 03:27:27;;;;;;;3.40;1.90;;;15.90;1.00;;;;;;5127202;27;20224;-80
2022/07/28 03:29:57;;;;;;;4.77;1.70;;;15.90;1.00;;;;;;5140344;27;20176;-81
2022/07/28 03:32:25;;;;;;;5.00;2.10;;;15.90;1.00;;;;;;5117014;27;20174;-82
2022/07/28 03:34:51;;;;;;;3.40;1.90;;;15.80;1.00;;;;;;5139001;27;20210;-81
2022/07/28 03:37:45;;;;;;;4.03;2.00;;;15.80;1.00;;;;;;5142102;27;20177;-80
2022/07/28 03:40:12;;;;;;;4.40;1.80;;;15.80;1.00;;;;;;5106844;27;20695;-81
2022/07/28 03:42:46;;;;;;;6.37;2.20;;;15.70;1.00;;;;;;5134888;27;20241;-84
2022/07/28 03:45:16;;;;;;;5.40;1.90;;;15.70;1.00;;;;;;5117988;27;20219;-83
2022/07/28 03:47:50;;;;;;;4.07;1.90;;;15.70;1.00;;;;;;5117943;27;20222;-86
2022/07/28 03:50:16;;;;;;;7.27;2.23;;;15.70;1.00;;;;;;5116035;27;20170;-81
2022/07/28 03:52:42;;;;;;;4.70;1.97;;;15.70;1.00;;;;;;5116275;27;20261;-83
2022/07/28 03:55:08;;;;;;;4.93;2.13;;;15.70;1.00;;;;;;5136167;27;20209;-80
2022/07/28 03:57:34;;;;;;;5.77;1.93;;;15.60;1.00;;;;;;5118124;28;20170;-85
2022/07/28 04:00:00;;;;;;;5.20;2.37;;;15.60;1.00;;;;;;5134917;27;20174;-80
2022/07/28 04:02:25;;;;;;;6.97;2.20;;;15.50;1.00;;;;;;5116342;28;20279;-81
2022/07/28 04:04:51;;;;;;;4.20;1.67;;;15.40;1.00;;;;;;5115944;27;20200;-82
2022/07/28 04:07:17;;;;;;;3.27;1.90;;;15.50;1.00;;;;;;5117628;28;20172;-83
2022/07/28 04:09:43;;;;;;;4.27;2.37;;;15.50;1.00;;;;;;5116663;28;20248;-83
2022/07/28 04:12:08;;;;;;;9.47;2.00;;;15.40;1.00;;;;;;5116012;28;20177;-82
2022/07/28 04:14:34;;;;;;;6.13;2.20;;;15.40;1.00;;;;;;5134425;28;20613;-80
2022/07/28 04:17:00;;;;;;;5.50;2.10;;;15.40;1.00;;;;;;5136552;28;20961;-83
2022/07/28 04:19:25;;;;;;;4.93;2.17;;;15.40;1.00;;;;;;5134589;28;20185;-84
2022/07/28 04:21:51;;;;;;;8.00;2.50;;;15.40;1.00;;;;;;5134718;28;20176;-83
2022/07/28 04:24:17;;;;;;;6.00;2.20;;;15.30;1.00;;;;;;5134045;28;20629;-85
2022/07/28 04:26:43;;;;;;;7.17;2.50;;;15.30;1.00;;;;;;5136355;28;20168;-83
2022/07/28 04:29:08;;;;;;;6.03;2.17;;;15.20;1.00;;;;;;5099669;28;20174;-85
2022/07/28 04:31:34;;;;;;;3.87;2.33;;;15.20;1.00;;;;;;5116660;28;20212;-80
2022/07/28 04:34:00;;;;;;;6.90;2.10;;;15.20;1.00;;;;;;5134066;28;20219;-82
2022/07/28 04:36:26;;;;;;;5.50;1.87;;;15.10;1.00;;;;;;5136064;28;20164;-83
2022/07/28 04:38:51;;;;;;;7.37;2.53;;;15.10;1.00;;;;;;5119670;27;20175;-86
2022/07/28 04:41:17;;;;;;;7.03;2.70;;;15.10;1.00;;;;;;5138646;27;20637;-80
2022/07/28 04:43:44;;;;;;;4.37;2.13;;;15.00;1.00;;;;;;5119191;27;20176;-85
2022/07/28 04:46:10;;;;;;;5.47;2.13;;;15.10;1.00;;;;;;5138437;27;20172;-82
2022/07/28 04:48:36;;;;;;;7.50;2.20;;;15.00;1.00;;;;;;5120316;27;20206;-81
2022/07/28 04:51:02;;;;;;;4.70;2.30;;;15.00;1.00;;;;;;5138138;27;20186;-84
2022/07/28 04:53:29;;;;;;;10.07;2.50;;;15.00;1.00;;;;;;5103114;27;20280;-83
2022/07/28 04:55:56;;;;;;;6.17;2.30;;;15.00;1.00;;;;;;5120495;27;20658;-82
2022/07/28 04:58:23;;;;;;;7.77;2.77;;;15.10;1.00;;;;;;5134276;27;20164;-82
2022/07/28 05:00:48;;;;;;;5.03;2.27;;;15.10;1.00;;;;;;5127474;27;20712;-83
2022/07/28 05:03:14;;;;;;;4.53;2.50;;;15.10;1.00;;;;;;5120267;27;20164;-84
2022/07/28 05:05:41;;;;;;;5.07;2.10;;;15.10;1.00;;;;;;5140156;27;20169;-80
2022/07/28 05:08:06;;;;;;;5.83;2.17;;;15.10;1.00;;;;;;5141401;27;20233;-84
2022/07/28 05:10:32;;;;;;;8.23;2.70;;;15.20;1.00;;;;;;5154176;27;20166;-84
2022/07/28 05:13:02;;;;;;;5.03;2.83;;;15.20;1.00;;;;;;5162151;27;20163;-83
2022/07/28 05:15:28;;;;;;;4.13;2.07;;;15.30;1.00;;;;;;5144414;27;20179;-81
2022/07/28 05:17:56;;;;;;;6.40;2.33;;;15.20;1.00;;;;;;5157915;27;20159;-80
2022/07/28 05:20:25;;;;;;;5.90;2.73;;;15.10;1.00;;;;;;5144421;27;20279;-81
2022/07/28 05:26:13;;;;;;;6.50;2.70;;;15.00;1.00;;;;;;5139982;27;20171;-81
2022/07/28 05:28:39;;;;;;;5.30;2.27;;;15.00;1.00;;;;;;5138709;27;20205;-81
2022/07/28 05:31:06;;;;;;;5.80;2.50;;;15.00;1.00;;;;;;5142230;27;20164;-83
2022/07/28 05:33:33;;;;;;;5.87;2.47;;;15.10;1.00;;;;;;5144075;27;20256;-81
2022/07/28 05:35:59;;;;;;;7.63;2.90;;;15.10;1.00;;;;;;5161460;27;20164;-82
2022/07/28 05:38:26;;;;;;;5.43;2.60;;;15.20;1.00;;;;;;5144523;27;20186;-83
2022/07/28 05:40:55;;;;;;;5.03;2.83;;;15.30;1.00;;;;;;5144635;27;20158;-81
2022/07/28 05:43:21;;;;;;;6.80;2.57;;;15.40;1.00;;;;;;5162469;27;20158;-81
2022/07/28 05:45:52;;;;;;;7.23;3.40;;;15.40;1.00;;;;;;5162061;27;20189;-81
2022/07/28 05:51:41;;;;;;;5.83;2.87;;;15.60;1.00;;;;;;5159057;27;20173;-80
2022/07/28 05:54:10;;;;;;;8.90;3.13;;;15.70;1.00;;;;;;5157521;27;20206;-80
2022/07/28 05:57:31;;;;;;;5.57;2.50;;;15.80;1.00;;;;;;5122721;27;20706;-85
2022/07/28 06:00:18;;;;;;;6.87;3.20;;;15.90;1.00;;;;;;5138519;27;20162;-81
2022/07/28 06:02:46;;;;;;;8.77;2.70;;;16.00;1.00;;;;;;5123187;27;20209;-80
2022/07/28 06:05:12;;;;;;;6.93;2.80;;;16.10;1.00;;;;;;5122250;27;20548;-83
2022/07/28 06:07:39;;;;;;;5.27;2.23;;;16.10;1.00;;;;;;5121618;27;20251;-80
2022/07/28 06:10:06;;;;;;;8.13;2.40;;;16.20;1.00;;;;;;5119260;27;20227;-81
2022/07/28 06:12:40;;;;;;;5.53;2.47;;;16.20;1.00;;;;;;5119204;27;20170;-83
2022/07/28 06:15:21;;;;;;;4.20;2.37;;;16.30;1.00;;;;;;5118867;27;20220;-80
2022/07/28 06:17:51;;;;;;;5.40;2.60;;;16.40;1.00;;;;;;5137979;27;20158;-81
2022/07/28 06:20:17;;;;;;;9.23;2.83;;;16.20;1.00;;;;;;5134874;27;20186;-80
2022/07/28 06:22:48;;;;;;;5.93;2.60;;;16.20;1.00;;;;;;5136534;27;20670;-80
2022/07/28 06:25:21;;;;;;;5.20;2.53;;;16.20;1.00;;;;;;5137964;27;20169;-82
2022/07/28 06:27:51;;;;;;;5.13;3.00;;;16.20;1.00;;;;;;5137482;27;20178;-81
2022/07/28 06:30:18;;;;;;;5.73;2.47;;;16.30;1.00;;;;;;5117511;27;20171;-84
2022/07/28 06:32:45;;;;;;;6.27;2.83;;;16.50;1.00;;;;;;5136664;27;20724;-80
2022/07/28 06:35:15;;;;;;;5.17;3.80;;;16.60;1.00;;;;;;5137912;27;20261;-81
2022/07/28 06:37:41;;;;;;;4.60;2.50;;;16.60;1.00;;;;;;5137258;27;20171;-81
2022/07/28 06:40:10;;;;;;;6.00;2.90;;;16.60;1.00;;;;;;5118002;27;20261;-81
2022/07/28 06:42:36;;;;;;;15.33;3.37;;;16.60;1.00;;;;;;5136916;27;20170;-80
2022/07/28 06:45:03;;;;;;;6.53;2.97;;;16.80;1.00;;;;;;5155500;27;20192;-81
2022/07/28 06:47:30;;;;;;;11.10;2.97;;;16.90;1.00;;;;;;5120145;27;20166;-80
2022/07/28 06:49:56;;;;;;;8.23;2.57;;;16.90;1.00;;;;;;5136185;27;20192;-83
2022/07/28 06:52:22;;;;;;;5.07;2.20;;;16.90;1.00;;;;;;5117862;27;20225;-84
2022/07/28 06:54:50;;;;;;;7.03;2.47;;;17.00;1.00;;;;;;5135816;27;20662;-84
2022/07/28 06:57:16;;;;;;;3.83;2.20;;;17.00;1.00;;;;;;5118554;27;20236;-80
2022/07/28 06:59:45;;;;;;;5.33;2.30;;;16.90;1.00;;;;;;5137017;27;20659;-80
2022/07/28 07:02:11;;;;;;;6.47;2.87;;;16.70;1.00;;;;;;5136109;27;20158;-81
2022/07/28 07:04:37;;;;;;;5.47;2.60;;;16.90;1.00;;;;;;5117971;27;20284;-84
2022/07/28 07:07:03;;;;;;;5.80;3.30;;;17.00;1.00;;;;;;5120230;27;20198;-83
2022/07/28 07:09:30;;;;;;;5.10;2.20;;;17.10;1.00;;;;;;5121328;27;20186;-80
2022/07/28 07:11:55;;;;;;;6.77;2.40;;;17.30;1.00;;;;;;5142175;27;20155;-81
2022/07/28 07:14:21;;;;;;;6.57;2.53;;;17.50;1.00;;;;;;5120849;27;20710;-85
2022/07/28 07:16:48;;;;;;;4.73;2.30;;;17.50;1.00;;;;;;5140681;27;20170;-81
2022/07/28 07:19:13;;;;;;;9.13;2.53;;;17.40;1.00;;;;;;5138601;27;20244;-81
2022/07/28 07:21:39;;;;;;;5.67;2.23;;;17.40;1.00;;;;;;5117939;27;20174;-83
2022/07/28 07:24:06;;;;;;;7.63;2.57;;;17.60;1.00;;;;;;5135685;27;20170;-81
2022/07/28 07:26:33;;;;;;;6.20;2.20;;;17.80;1.00;;;;;;5136946;27;20234;-81
2022/07/28 07:28:58;;;;;;;8.10;2.53;;;17.70;1.00;;;;;;5135887;27;20573;-81
2022/07/28 07:31:24;;;;;;;9.00;3.87;;;17.80;1.00;;;;;;5136280;27;20250;-82
2022/07/28 07:33:49;;;;;;;5.23;1.97;;;18.00;1.00;;;;;;5135639;27;20609;-81
2022/07/28 07:36:16;;;;;;;9.10;2.47;;;18.00;1.00;;;;;;5118907;27;20615;-83
2022/07/28 07:38:44;;;;;;;4.70;2.23;;;18.20;1.00;;;;;;5136902;27;20175;-84
2022/07/28 07:41:11;;;;;;;8.83;2.43;;;18.20;1.00;;;;;;5117140;27;20171;-81
2022/07/28 07:43:37;;;;;;;6.60;2.50;;;18.20;1.00;;;;;;5135520;27;20167;-81
2022/07/28 07:46:02;;;;;;;4.67;2.60;;;18.20;1.00;;;;;;5135503;27;20167;-80
2022/07/28 07:48:28;;;;;;;6.70;3.03;;;18.20;1.00;;;;;;5117022;27;20183;-80
2022/07/28 07:50:54;;;;;;;6.03;2.47;;;18.10;1.00;;;;;;5135537;27;20162;-81
2022/07/28 07:53:19;;;;;;;8.13;2.43;;;18.00;1.00;;;;;;5135399;27;20198;-82
2022/07/28 07:55:45;;;;;;;5.63;2.60;;;18.00;1.00;;;;;;5119130;27;20208;-80
2022/07/28 07:58:11;;;;;;;5.80;2.17;;;18.20;1.00;;;;;;5119266;27;20168;-80
2022/07/28 08:00:36;;;;;;;3.40;1.90;;;18.40;1.00;;;;;;5130361;27;20282;-81
2022/07/28 08:03:02;;;;;;;5.50;2.50;;;18.40;1.00;;;;;;5157825;27;20175;-83
2022/07/28 08:05:29;;;;;;;4.87;2.00;;;18.50;1.00;;;;;;5145627;27;20259;-82
2022/07/28 08:07:58;;;;;;;8.67;2.57;;;18.40;1.00;;;;;;5118340;28;20179;-80
2022/07/28 08:10:26;;;;;;;5.40;2.20;;;18.40;1.00;;;;;;5135467;28;20213;-81
2022/07/28 08:12:52;;;;;;;4.00;2.03;;;18.50;1.00;;;;;;5134537;27;20166;-83
2022/07/28 08:15:18;;;;;;;7.80;1.90;;;18.50;1.00;;;;;;5118307;28;20170;-79
2022/07/28 08:17:44;;;;;;;8.60;2.57;;;18.40;1.00;;;;;;5139244;28;20229;-80
2022/07/28 08:20:10;;;;;;;6.70;2.27;;;18.50;1.00;;;;;;5132990;27;20193;-83
2022/07/28 08:22:56;;;;;;;8.93;2.53;;;18.70;1.00;;;;;;5141422;27;20154;-80
2022/07/28 08:25:23;;;;;;;4.83;1.80;;;18.90;1.00;;;;;;5134147;28;20166;-79
2022/07/28 08:28:17;;;;;;;4.87;2.00;;;18.90;99.90;;;;;;5124796;28;20185;-81
2022/07/28 08:30:59;;;;;;;3.83;1.90;;;19.00;99.90;;;;;;5117464;28;20177;-82
2022/07/28 08:33:25;;;;;;;7.07;1.93;;;18.90;99.90;;;;;;5136509;28;20205;-85
2022/07/28 08:35:51;;;;;;;6.10;2.20;;;18.90;99.90;;;;;;5139208;28;20169;-79
2022/07/28 08:38:16;;;;;;;6.47;2.17;;;19.10;99.90;;;;;;5124810;28;20239;-82
2022/07/28 08:40:46;;;;;;;6.07;2.17;;;19.20;99.90;;;;;;5147042;27;20337;-83
2022/07/28 08:43:31;;;;;;;4.57;1.73;;;19.40;99.90;;;;;;5150504;27;20178;-79
2022/07/28 08:45:59;;;;;;;4.37;1.50;;;19.40;99.90;;;;;;5131196;28;20174;-81
2022/07/28 08:48:29;;;;;;;3.70;1.63;;;19.50;99.90;;;;;;5117526;28;20198;-82
2022/07/28 08:51:08;;;;;;;6.17;1.87;;;19.60;99.90;;;;;;5134839;28;20163;-80
2022/07/28 08:53:35;;;;;;;5.37;1.90;;;19.50;99.90;;;;;;5115644;28;20205;-81
2022/07/28 08:56:04;;;;;;;6.00;2.40;;;19.60;99.90;;;;;;5134521;27;20197;-82
2022/07/28 08:58:35;;;;;;;4.40;2.40;;;19.60;99.90;;;;;;5134901;28;20212;-80
2022/07/28 09:01:01;;;;;;;5.77;2.03;;;19.60;99.90;;;;;;5137710;28;20160;-82
2022/07/28 09:03:28;;;;;;;5.17;1.73;;;19.70;99.90;;;;;;5140272;27;20210;-81
2022/07/28 09:05:55;;;;;;;6.67;1.63;;;19.90;99.90;;;;;;5138671;28;20180;-81
2022/07/28 09:08:21;;;;;;;5.77;2.00;;;20.00;7.60;;;;;;5111002;28;20180;-84
2022/07/28 09:14:09;;;;;;;4.27;1.50;;;20.00;1.00;;;;;;5134985;28;20299;-82
2022/07/28 09:16:35;;;;;;;3.87;1.50;;;20.00;1.00;;;;;;5118213;28;20621;-83
2022/07/28 09:19:01;;;;;;;3.47;1.50;;;20.00;1.00;;;;;;5116643;28;20562;-84
2022/07/28 09:21:27;;;;;;;3.73;1.57;;;20.20;1.00;;;;;;5116307;28;20172;-82
2022/07/28 09:23:53;;;;;;;3.17;1.37;;;20.20;99.90;;;;;;5135928;27;20219;-81
2022/07/28 09:26:19;;;;;;;5.27;1.60;;;20.30;1.00;;;;;;5140095;27;20181;-79
2022/07/28 09:28:51;;;;;;;4.73;1.50;;;20.50;99.90;;;;;;5139917;27;20197;-83
2022/07/28 09:31:18;;;;;;;6.60;1.57;;;20.70;1.00;;;;;;5122156;27;20168;-83
2022/07/28 09:34:05;;;;;;;7.67;1.87;;;20.80;99.90;;;;;;5146587;27;20234;-81
2022/07/28 09:36:38;;;;;;;4.77;1.40;;;21.00;99.90;;;;;;5161057;27;20169;-77
2022/07/28 09:39:05;;;;;;;3.53;1.47;;;20.80;45.10;;;;;;5159588;27;20182;-80
2022/07/28 09:41:56;;;;;;;4.10;1.33;;;20.70;99.90;;;;;;5161633;27;20195;-80
2022/07/28 09:44:26;;;;;;;2.57;1.13;;;20.70;1.00;;;;;;5132991;27;20172;-83
2022/07/28 09:47:26;;;;;;;3.97;1.63;;;20.60;1.00;;;;;;5149126;27;20191;-83
2022/07/28 09:50:04;;;;;;;4.40;1.80;;;20.70;1.00;;;;;;5140429;27;20179;-80
2022/07/28 09:52:41;;;;;;;7.60;1.93;;;20.80;99.90;;;;;;5139367;27;20192;-80
2022/07/28 09:55:11;;;;;;;3.73;1.50;;;21.00;1.00;;;;;;5123766;27;20718;-82
2022/07/28 09:57:38;;;;;;;3.40;1.30;;;21.10;21.80;;;;;;5121529;27;20216;-79
2022/07/28 10:00:11;;;;;;;6.90;1.83;;;21.00;1.00;;;;;;5122731;27;20658;-83
2022/07/28 10:02:37;;;;;;;6.17;1.90;;;21.00;99.90;;;;;;5151609;27;20175;-81
2022/07/28 10:05:39;;;;;;;4.87;1.53;;;21.00;99.90;;;;;;5140186;27;20168;-80
2022/07/28 10:08:05;;;;;;;6.20;1.60;;;21.30;1.00;;;;;;5121363;27;20641;-82
2022/07/28 10:10:31;;;;;;;3.77;1.50;;;21.60;99.90;;;;;;5139533;27;20210;-80
2022/07/28 10:13:05;;;;;;;4.53;1.50;;;21.60;99.90;;;;;;5103635;27;20192;-80
2022/07/28 10:18:15;;;;;;;5.47;1.80;;;21.60;99.90;;;;;;5140090;27;20173;-81
2022/07/28 10:20:41;;;;;;;7.43;1.93;;;21.60;1.00;;;;;;5140790;27;20186;-84
2022/07/28 10:23:12;;;;;;;7.53;2.33;;;21.70;99.90;;;;;;5138101;27;20166;-82
2022/07/28 10:25:42;;;;;;;6.30;1.63;;;21.70;99.90;;;;;;5139462;27;20219;-85
2022/07/28 10:28:10;;;;;;;5.00;2.07;;;21.60;99.90;;;;;;5119944;27;20241;-82
2022/07/28 10:30:39;;;;;;;5.63;1.80;;;21.50;1.00;;;;;;5137538;27;20625;-81
2022/07/28 10:33:12;;;;;;;5.17;1.70;;;21.50;1.00;;;;;;5118883;27;20166;-84
2022/07/28 10:35:39;;;;;;;4.53;1.70;;;21.50;99.90;;;;;;5137485;27;20176;-81
2022/07/28 10:38:11;;;;;;;4.17;1.30;;;21.50;99.90;;;;;;5124908;27;20535;-82
2022/07/28 10:40:49;;;;;;;8.60;1.77;;;21.50;99.90;;;;;;5129256;27;20272;-80
2022/07/28 10:43:15;;;;;;;5.63;1.77;;;21.50;99.90;;;;;;5124559;27;20547;-84
2022/07/28 10:45:42;;;;;;;4.27;1.67;;;21.60;99.90;;;;;;5155463;27;20170;-80
2022/07/28 10:48:08;;;;;;;3.10;1.50;;;21.80;99.90;;;;;;5150843;27;20241;-80
2022/07/28 10:50:35;;;;;;;6.57;1.70;;;22.00;23.00;;;;;;5116363;28;20194;-81
2022/07/28 10:53:06;;;;;;;4.60;1.40;;;22.00;1.00;;;;;;5116174;28;20242;-80
2022/07/28 10:55:45;;;;;;;4.93;1.57;;;22.00;1.00;;;;;;5102143;28;20214;-84
2022/07/28 10:58:13;;;;;;;3.80;1.80;;;22.10;1.00;;;;;;5114097;27;20191;-83
2022/07/28 11:00:46;;;;;;;8.73;2.20;;;21.90;1.00;;;;;;5119873;27;20282;-81
2022/07/28 11:03:42;;;;;;;5.37;1.50;;;21.80;1.00;;;;;;5138341;27;20151;-81
2022/07/28 11:06:33;;;;;;;3.57;1.53;;;21.80;1.00;;;;;;5138248;28;20151;-81
2022/07/28 11:09:20;;;;;;;5.87;1.83;;;21.70;1.00;;;;;;5116962;28;20175;-82
2022/07/28 11:11:50;;;;;;;6.93;1.77;;;21.80;5.00;;;;;;5102383;28;20167;-79
2022/07/28 11:14:25;;;;;;;5.13;1.47;;;21.90;1.00;;;;;;5099140;28;20214;-82
2022/07/28 11:17:00;;;;;;;4.13;1.93;;;21.80;5.00;;;;;;5130490;27;20162;-82
2022/07/28 11:19:44;;;;;;;4.73;1.40;;;21.90;1.00;;;;;;5136523;27;20207;-81
2022/07/28 11:22:17;;;;;;;5.70;1.87;;;21.90;1.00;;;;;;5137067;27;20188;-81
2022/07/28 11:27:42;;;;;;;4.10;1.73;;;22.20;1.00;;;;;;5139975;27;20175;-81
2022/07/28 11:30:08;;;;;;;5.23;1.80;;;22.40;99.90;;;;;;5138655;27;20166;-78
2022/07/28 11:32:49;;;;;;;5.33;1.60;;;22.60;99.90;;;;;;5137606;27;20526;-84
2022/07/28 11:35:16;;;;;;;3.27;1.30;;;22.80;99.90;;;;;;5130959;27;20213;-82
2022/07/28 11:38:14;;;;;;;4.60;1.97;;;22.90;1.00;;;;;;5137740;27;20174;-82
2022/07/28 11:40:45;;;;;;;4.57;1.53;;;23.10;1.00;;;;;;5105681;28;20278;-80
2022/07/28 11:43:23;;;;;;;5.23;1.80;;;23.10;1.00;;;;;;5098098;28;20617;-82
2022/07/28 11:46:14;;;;;;;9.90;1.57;;;23.10;1.00;;;;;;5133743;27;20183;-82
2022/07/28 11:48:43;;;;;;;4.93;1.53;;;23.10;1.00;;;;;;5115836;27;20180;-84
2022/07/28 11:51:10;;;;;;;4.60;1.90;;;23.10;1.00;;;;;;5117149;27;20172;-83
2022/07/28 11:53:47;;;;;;;5.93;1.50;;;23.00;1.00;;;;;;5135484;27;20211;-81
2022/07/28 11:56:13;;;;;;;3.60;1.73;;;23.00;1.00;;;;;;5136076;27;20191;-83
2022/07/28 11:58:39;;;;;;;7.87;2.03;;;22.90;1.00;;;;;;5136287;27;20179;-82
2022/07/28 12:01:13;;;;;;;6.43;1.87;;;23.00;1.00;;;;;;5141284;27;20197;-81
2022/07/28 12:03:40;;;;;;;4.23;1.43;;;22.80;1.00;;;;;;5137965;28;20194;-80
2022/07/28 12:06:08;;;;;;;4.00;1.67;;;22.70;1.00;;;;;;5139641;27;20204;-81
2022/07/28 12:08:53;;;;;;;5.53;2.20;;;22.90;1.00;;;;;;5125395;27;20587;-81
2022/07/28 12:11:20;;;;;;;6.07;1.60;;;22.90;1.00;;;;;;5135698;28;20222;-81
2022/07/28 12:14:17;;;;;;;3.83;1.67;;;22.90;1.00;;;;;;5135795;28;20654;-79
2022/07/28 12:16:48;;;;;;;5.03;2.20;;;22.90;1.00;;;;;;5120619;28;20164;-82
2022/07/28 12:19:16;;;;;;;7.40;2.00;;;23.10;1.00;;;;;;5116204;28;20650;-82
2022/07/28 12:21:44;;;;;;;6.80;2.07;;;23.30;1.00;;;;;;5116046;28;20253;-80
2022/07/28 12:24:14;;;;;;;7.30;2.10;;;23.30;99.90;;;;;;5116182;28;20215;-82
2022/07/28 12:26:42;;;;;;;4.87;1.97;;;23.30;99.90;;;;;;5136960;28;20176;-81
2022/07/28 12:29:11;;;;;;;7.50;2.53;;;23.40;99.90;;;;;;5146176;27;20160;-80
2022/07/28 12:31:37;;;;;;;5.13;1.93;;;23.40;99.90;;;;;;5146037;28;20314;-83
2022/07/28 12:34:05;;;;;;;4.93;1.43;;;23.30;99.90;;;;;;5143396;28;20576;-81
2022/07/28 12:36:35;;;;;;;4.43;1.67;;;23.20;99.90;;;;;;5121583;28;20186;-81
2022/07/28 12:39:21;;;;;;;6.50;1.70;;;23.20;99.90;;;;;;5117833;28;20176;-79
2022/07/28 12:42:00;;;;;;;6.90;1.80;;;23.30;99.90;;;;;;5123683;28;20197;-83
2022/07/28 12:44:34;;;;;;;6.63;1.90;;;23.30;99.90;;;;;;5104888;28;20176;-81
2022/07/28 12:47:01;;;;;;;5.27;1.60;;;23.60;99.90;;;;;;5138054;28;20616;-81
2022/07/28 12:49:28;;;;;;;4.40;1.50;;;23.80;98.80;;;;;;5126342;28;20165;-81
2022/07/28 12:51:57;;;;;;;3.93;1.40;;;23.60;24.90;;;;;;5143714;28;20165;-82
2022/07/28 12:54:35;;;;;;;5.00;1.43;;;23.60;34.00;;;;;;5120584;28;20236;-82
2022/07/28 12:57:00;;;;;;;4.67;1.70;;;23.50;68.10;;;;;;5137735;28;20183;-84
2022/07/28 12:59:32;;;;;;;6.60;2.03;;;23.40;67.40;;;;;;5143519;27;20176;-81
2022/07/28 13:01:59;;;;;;;6.30;1.40;;;23.70;99.90;;;;;;5149472;27;20532;-80
2022/07/28 13:04:44;;;;;;;7.77;1.60;;;23.70;1.00;;;;;;5127979;27;20181;-81
2022/07/28 13:07:14;;;;;;;8.13;1.93;;;23.90;1.00;;;;;;5141001;27;20157;-81
2022/07/28 13:09:47;;;;;;;4.10;1.70;;;23.80;1.00;;;;;;5121848;27;20172;-81
2022/07/28 13:12:15;;;;;;;4.80;1.80;;;23.60;1.00;;;;;;5139926;27;20168;-80
2022/07/28 13:14:43;;;;;;;4.60;1.77;;;23.70;1.00;;;;;;5120912;27;20209;-80
2022/07/28 13:17:09;;;;;;;4.80;1.50;;;23.60;1.00;;;;;;5132560;27;20173;-82
2022/07/28 13:19:35;;;;;;;5.37;1.70;;;23.60;1.00;;;;;;5129998;27;20245;-80
2022/07/28 13:22:04;;;;;;;5.90;1.70;;;23.80;1.00;;;;;;5134861;27;20176;-80
2022/07/28 13:24:30;;;;;;;5.10;1.40;;;23.80;1.00;;;;;;5121551;27;20191;-81
2022/07/28 13:27:00;;;;;;;4.60;1.50;;;23.70;1.00;;;;;;5146259;27;20263;-79
2022/07/28 13:29:26;;;;;;;7.87;1.60;;;23.70;1.00;;;;;;5172838;27;20172;-79
2022/07/28 13:31:53;;;;;;;6.30;1.73;;;23.60;1.00;;;;;;5183114;27;20173;-80
2022/07/28 13:34:19;;;;;;;4.57;1.40;;;23.70;1.00;;;;;;5178879;27;20207;-80
2022/07/28 13:36:45;;;;;;;5.30;1.73;;;23.70;1.00;;;;;;5162601;27;20159;-83
2022/07/28 13:42:41;;;;;;;4.13;1.37;;;23.90;1.00;;;;;;5149770;27;20168;-79